Time;durP1;ratioP1;P1;durP2;ratioP2;P2;SDS_P1;SDS_P2;PMS_P1;PMS_P2;Temp;Humidity;BMP_temperature;BMP_pressure;BME280_temperature;BME280_humidity;BME280_pressure;Samples;Min_cycle;Max_cycle;Signal;HPM_P1;HPM_P2
2022/12/07 00:01:04;;;;;;;;;;;1.40;99.90;;;;;;5079886;28;19918;-80
2022/12/07 00:03:29;;;;;;;;;;;1.40;99.90;;;;;;5097775;28;19912;-80
2022/12/07 00:05:57;;;;;;;;;;;1.40;99.90;;;;;;5097292;28;20272;-81
2022/12/07 00:08:23;;;;;;;;;;;1.50;99.90;;;;;;5078794;28;19908;-81
2022/12/07 00:10:48;;;;;;;;;;;1.40;99.90;;;;;;5079748;28;19923;-80
2022/12/07 00:13:14;;;;;;;;;;;1.50;99.90;;;;;;5079696;28;20007;-81
2022/12/07 00:15:39;;;;;;;;;;;1.40;99.90;;;;;;5081071;28;19919;-80
2022/12/07 00:18:05;;;;;;;;;;;1.40;99.90;;;;;;5079474;28;19969;-81
2022/12/07 00:20:31;;;;;;;;;;;1.40;99.90;;;;;;5095711;28;20007;-81
2022/12/07 00:22:56;;;;;;;;;;;1.30;99.90;;;;;;5078097;28;19912;-80
2022/12/07 00:25:22;;;;;;;;;;;1.40;99.90;;;;;;5076873;28;19912;-80
2022/12/07 00:27:47;;;;;;;;;;;1.30;99.90;;;;;;5078931;28;20058;-80
2022/12/07 00:30:13;;;;;;;;;;;1.30;99.90;;;;;;5097089;28;19919;-80
2022/12/07 00:32:38;;;;;;;;;;;1.30;99.90;;;;;;5097168;28;19959;-80
2022/12/07 00:35:04;;;;;;;;;;;1.30;99.90;;;;;;5097032;28;20315;-80
2022/12/07 00:37:30;;;;;;;;;;;1.30;99.90;;;;;;5096738;28;20287;-80
2022/12/07 00:39:55;;;;;;;;;;;1.40;99.90;;;;;;5095837;28;19995;-80
2022/12/07 00:42:21;;;;;;;;;;;1.40;99.90;;;;;;5066323;28;20478;-81
2022/12/07 00:44:46;;;;;;;;;;;1.40;99.90;;;;;;5094852;28;20386;-80
2022/12/07 00:47:12;;;;;;;;;;;1.40;99.90;;;;;;5094126;28;20330;-80
2022/12/07 00:49:37;;;;;;;;;;;1.40;99.90;;;;;;5078355;28;20268;-80
2022/12/07 00:52:03;;;;;;;;;;;1.40;99.90;;;;;;5062004;28;19971;-80
2022/12/07 00:54:29;;;;;;;;;;;1.40;99.90;;;;;;5096586;28;19912;-80
2022/12/07 00:56:57;;;;;;;;;;;1.30;99.90;;;;;;5077203;28;20422;-81
2022/12/07 00:59:22;;;;;;;;;;;1.30;99.90;;;;;;5091053;28;19923;-81
2022/12/07 01:01:48;;;;;;;;;;;1.30;99.90;;;;;;5079620;28;20134;-81
2022/12/07 01:04:14;;;;;;;;;;;1.30;99.90;;;;;;5095944;28;19912;-81
2022/12/07 01:06:39;;;;;;;;;;;1.30;99.90;;;;;;5076713;28;19920;-81
2022/12/07 01:09:06;;;;;;;;;;;1.30;99.90;;;;;;5095332;28;19919;-81
2022/12/07 01:11:31;;;;;;;;;;;1.30;99.90;;;;;;5094265;28;19919;-80
2022/12/07 01:13:58;;;;;;;;;;;1.30;99.90;;;;;;5093997;28;19916;-80
2022/12/07 01:16:25;;;;;;;;;;;1.30;99.90;;;;;;5093661;28;19908;-80
2022/12/07 01:18:51;;;;;;;;;;;1.20;99.90;;;;;;5092975;28;19916;-80
2022/12/07 01:21:18;;;;;;;;;;;1.30;99.90;;;;;;5094607;28;19944;-80
2022/12/07 01:23:44;;;;;;;;;;;1.30;99.90;;;;;;5077077;28;19931;-80
2022/12/07 01:26:11;;;;;;;;;;;1.30;99.90;;;;;;5095412;28;20283;-80
2022/12/07 01:28:36;;;;;;;;;;;1.30;99.90;;;;;;5092903;28;20018;-80
2022/12/07 01:31:04;;;;;;;;;;;1.40;99.90;;;;;;5093603;28;19908;-80
2022/12/07 01:33:30;;;;;;;;;;;1.40;99.90;;;;;;5095634;28;19912;-79
2022/12/07 01:36:25;;;;;;;;;;;1.40;99.90;;;;;;5077348;28;19955;-80
2022/12/07 01:38:53;;;;;;;;;;;1.40;99.90;;;;;;5066111;28;20015;-80
2022/12/07 01:41:20;;;;;;;;;;;1.40;99.90;;;;;;5094004;28;20386;-80
2022/12/07 01:44:04;;;;;;;;;;;1.40;99.90;;;;;;5092223;28;19908;-80
2022/12/07 01:46:30;;;;;;;;;;;1.40;99.90;;;;;;5068798;28;19912;-79
2022/12/07 01:48:55;;;;;;;;;;;1.40;99.90;;;;;;5094874;28;20326;-80
2022/12/07 01:51:21;;;;;;;;;;;1.40;99.90;;;;;;5093318;28;20372;-80
2022/12/07 01:53:46;;;;;;;;;;;1.40;99.90;;;;;;5093440;28;19920;-80
2022/12/07 01:56:16;;;;;;;;;;;1.40;99.90;;;;;;5057484;28;20439;-80
2022/12/07 01:58:42;;;;;;;;;;;1.40;99.90;;;;;;5060418;28;19937;-80
2022/12/07 02:01:08;;;;;;;;;;;1.40;99.90;;;;;;5075160;28;20003;-80
2022/12/07 02:03:38;;;;;;;;;;;1.40;99.90;;;;;;5091840;28;20003;-80
2022/12/07 02:06:05;;;;;;;;;;;1.30;99.90;;;;;;5076757;28;19938;-80
2022/12/07 02:08:31;;;;;;;;;;;1.30;99.90;;;;;;5094761;28;19942;-80
2022/12/07 02:10:56;;;;;;;;;;;1.30;99.90;;;;;;5094966;28;20011;-80
2022/12/07 02:13:24;;;;;;;;;;;1.30;99.90;;;;;;5094800;28;20005;-80
2022/12/07 02:16:08;;;;;;;;;;;1.30;99.90;;;;;;5095007;28;19912;-80
2022/12/07 02:18:33;;;;;;;;;;;1.30;99.90;;;;;;5096751;28;19912;-82
2022/12/07 02:21:02;;;;;;;;;;;1.20;99.90;;;;;;5078611;28;19915;-82
2022/12/07 02:23:42;;;;;;;;;;;1.20;99.90;;;;;;5096813;28;19908;-82
2022/12/07 02:26:20;;;;;;;;;;;1.20;99.90;;;;;;5077693;28;19908;-82
2022/12/07 02:28:46;;;;;;;;;;;1.10;99.90;;;;;;5075923;28;19987;-82
2022/12/07 02:31:14;;;;;;;;;;;1.10;99.90;;;;;;5078695;28;19992;-82
2022/12/07 02:33:52;;;;;;;;;;;1.10;99.90;;;;;;5076448;28;19917;-82
2022/12/07 02:36:30;;;;;;;;;;;1.10;99.90;;;;;;5092495;28;20378;-80
2022/12/07 02:39:07;;;;;;;;;;;1.10;99.90;;;;;;5075973;28;19912;-81
2022/12/07 02:41:36;;;;;;;;;;;1.10;99.90;;;;;;5095451;28;19908;-82
2022/12/07 02:44:04;;;;;;;;;;;1.10;99.90;;;;;;5095741;28;19909;-81
2022/12/07 02:46:32;;;;;;;;;;;1.10;99.90;;;;;;5074012;28;20268;-80
2022/12/07 02:48:59;;;;;;;;;;;1.10;99.90;;;;;;5095074;28;20450;-82
2022/12/07 02:51:25;;;;;;;;;;;1.20;99.90;;;;;;5082161;28;20014;-79
2022/12/07 02:53:50;;;;;;;;;;;1.20;99.90;;;;;;5100654;28;19912;-79
2022/12/07 02:56:35;;;;;;;;;;;1.20;99.90;;;;;;5079923;28;20022;-79
2022/12/07 02:59:14;;;;;;;;;;;1.10;99.90;;;;;;5078175;28;19983;-79
2022/12/07 03:01:44;;;;;;;;;;;1.10;99.90;;;;;;5096485;28;19908;-79
2022/12/07 03:04:09;;;;;;;;;;;1.00;99.90;;;;;;5095918;28;19909;-79
2022/12/07 03:06:40;;;;;;;;;;;1.00;99.90;;;;;;5095741;28;19931;-79
2022/12/07 03:09:20;;;;;;;;;;;1.00;99.90;;;;;;5094200;28;20267;-79
2022/12/07 03:11:51;;;;;;;;;;;1.00;99.90;;;;;;5096996;28;19908;-79
2022/12/07 03:14:20;;;;;;;;;;;1.00;99.90;;;;;;5096595;28;19908;-79
2022/12/07 03:16:49;;;;;;;;;;;1.00;99.90;;;;;;5096285;28;20368;-79
2022/12/07 03:19:17;;;;;;;;;;;1.00;99.90;;;;;;5080467;28;19912;-79
2022/12/07 03:21:47;;;;;;;;;;;1.00;99.90;;;;;;5096728;28;19915;-79
2022/12/07 03:24:15;;;;;;;;;;;1.00;99.90;;;;;;5096442;28;20003;-79
2022/12/07 03:26:44;;;;;;;;;;;1.00;99.90;;;;;;5078831;28;19978;-79
2022/12/07 03:29:15;;;;;;;;;;;1.10;99.90;;;;;;5098570;28;19912;-79
2022/12/07 03:31:47;;;;;;;;;;;1.10;99.90;;;;;;5082769;28;19908;-79
2022/12/07 03:34:38;;;;;;;;;;;1.10;99.90;;;;;;5081973;28;19908;-79
2022/12/07 03:37:11;;;;;;;;;;;1.10;99.90;;;;;;5077457;28;19908;-79
2022/12/07 03:39:44;;;;;;;;;;;1.10;99.90;;;;;;5082288;28;20356;-79
2022/12/07 03:42:10;;;;;;;;;;;1.10;99.90;;;;;;5101123;28;19947;-79
2022/12/07 03:44:36;;;;;;;;;;;1.10;99.90;;;;;;5082553;28;19939;-79
2022/12/07 03:47:17;;;;;;;;;;;1.10;99.90;;;;;;5082164;28;20252;-79
2022/12/07 03:49:45;;;;;;;;;;;1.20;99.90;;;;;;5100403;28;19907;-79
2022/12/07 03:52:19;;;;;;;;;;;1.20;99.90;;;;;;5100481;28;19908;-78
2022/12/07 03:54:51;;;;;;;;;;;1.20;99.90;;;;;;5079254;28;19999;-79
2022/12/07 03:57:17;;;;;;;;;;;1.20;99.90;;;;;;5099586;28;19944;-79
2022/12/07 03:59:43;;;;;;;;;;;1.20;99.90;;;;;;5098480;28;19983;-80
2022/12/07 04:02:11;;;;;;;;;;;1.30;99.90;;;;;;5065222;28;20295;-79
2022/12/07 04:04:36;;;;;;;;;;;1.30;99.90;;;;;;5101842;28;19954;-80
2022/12/07 04:07:02;;;;;;;;;;;1.30;99.90;;;;;;5082135;28;19912;-79
2022/12/07 04:09:27;;;;;;;;;;;1.30;99.90;;;;;;5097634;28;19913;-79
2022/12/07 04:11:53;;;;;;;;;;;1.30;99.90;;;;;;5097524;28;19912;-79
2022/12/07 04:14:18;;;;;;;;;;;1.30;99.90;;;;;;5097849;28;19923;-79
2022/12/07 04:16:48;;;;;;;;;;;1.20;99.90;;;;;;5082113;28;19912;-79
2022/12/07 04:19:14;;;;;;;;;;;1.20;99.90;;;;;;5100860;28;19955;-79
2022/12/07 04:21:39;;;;;;;;;;;1.20;99.90;;;;;;5099543;28;19965;-79
2022/12/07 04:24:05;;;;;;;;;;;1.20;99.90;;;;;;5081681;28;19919;-78
2022/12/07 04:26:30;;;;;;;;;;;1.20;99.90;;;;;;5081545;28;19935;-79
2022/12/07 04:28:56;;;;;;;;;;;1.20;99.90;;;;;;5082563;28;19908;-79
2022/12/07 04:31:22;;;;;;;;;;;1.10;99.90;;;;;;5081643;28;20390;-80
2022/12/07 04:33:47;;;;;;;;;;;1.10;99.90;;;;;;5100506;28;20375;-79
2022/12/07 04:36:13;;;;;;;;;;;1.10;99.90;;;;;;5099995;28;19919;-79
2022/12/07 04:38:38;;;;;;;;;;;1.10;99.90;;;;;;5099133;28;19927;-79
2022/12/07 04:41:08;;;;;;;;;;;1.10;99.90;;;;;;5078841;28;19919;-79
2022/12/07 04:43:33;;;;;;;;;;;1.10;99.90;;;;;;5076187;28;19943;-79
2022/12/07 04:45:59;;;;;;;;;;;1.10;99.90;;;;;;5080928;28;19913;-79
2022/12/07 04:48:25;;;;;;;;;;;1.10;99.90;;;;;;5099398;28;19908;-79
2022/12/07 04:50:50;;;;;;;;;;;1.10;99.90;;;;;;5082355;28;19965;-79
2022/12/07 04:53:16;;;;;;;;;;;1.10;99.90;;;;;;5081870;28;19912;-79
2022/12/07 04:55:41;;;;;;;;;;;1.10;99.90;;;;;;5083070;28;19942;-79
2022/12/07 04:58:07;;;;;;;;;;;1.10;99.90;;;;;;5103067;28;19934;-79
2022/12/07 05:00:33;;;;;;;;;;;1.00;99.90;;;;;;5102303;28;19931;-80
2022/12/07 05:02:58;;;;;;;;;;;1.00;99.90;;;;;;5083690;28;20654;-80
2022/12/07 05:05:24;;;;;;;;;;;1.00;99.90;;;;;;5081636;28;19924;-80
2022/12/07 05:07:50;;;;;;;;;;;1.00;99.90;;;;;;5099984;28;19912;-79
2022/12/07 05:10:15;;;;;;;;;;;1.10;99.90;;;;;;5099523;28;19923;-80
2022/12/07 05:12:41;;;;;;;;;;;1.10;99.90;;;;;;5083430;28;19908;-80
2022/12/07 05:15:07;;;;;;;;;;;1.00;99.90;;;;;;5100354;28;19912;-79
2022/12/07 05:17:32;;;;;;;;;;;1.00;99.90;;;;;;5064464;28;19912;-80
2022/12/07 05:19:58;;;;;;;;;;;1.00;99.90;;;;;;5104225;28;19916;-80
2022/12/07 05:22:27;;;;;;;;;;;1.10;99.90;;;;;;5087298;28;19919;-79
2022/12/07 05:24:56;;;;;;;;;;;1.10;99.90;;;;;;5084282;28;19970;-79
2022/12/07 05:27:22;;;;;;;;;;;1.10;99.90;;;;;;5101314;28;19919;-79
2022/12/07 05:29:47;;;;;;;;;;;1.10;99.90;;;;;;5100039;28;20284;-81
2022/12/07 05:32:13;;;;;;;;;;;1.20;99.90;;;;;;5079628;28;19957;-81
2022/12/07 05:34:38;;;;;;;;;;;1.10;99.90;;;;;;5098169;28;20003;-80
2022/12/07 05:37:04;;;;;;;;;;;1.20;99.90;;;;;;5079913;28;19918;-81
2022/12/07 05:39:29;;;;;;;;;;;1.20;99.90;;;;;;5099639;28;19988;-82
2022/12/07 05:42:13;;;;;;;;;;;1.20;99.90;;;;;;5101011;28;20368;-81
2022/12/07 05:44:43;;;;;;;;;;;1.20;99.90;;;;;;5083571;28;20018;-81
2022/12/07 05:47:09;;;;;;;;;;;1.20;99.90;;;;;;5105011;28;19989;-81
2022/12/07 05:49:35;;;;;;;;;;;1.10;99.90;;;;;;5084395;28;20356;-81
2022/12/07 05:52:00;;;;;;;;;;;1.10;99.90;;;;;;5083842;28;19957;-80
2022/12/07 05:54:26;;;;;;;;;;;1.10;99.90;;;;;;5100723;28;19939;-80
2022/12/07 05:56:51;;;;;;;;;;;1.10;99.90;;;;;;5083339;28;19912;-81
2022/12/07 05:59:23;;;;;;;;;;;1.10;99.90;;;;;;5081479;28;20011;-81
2022/12/07 06:01:58;;;;;;;;;;;1.10;99.90;;;;;;5079697;28;19919;-81
2022/12/07 06:04:24;;;;;;;;;;;1.10;99.90;;;;;;5098421;28;19919;-80
2022/12/07 06:06:50;;;;;;;;;;;1.10;99.90;;;;;;5097512;28;19912;-80
2022/12/07 06:09:16;;;;;;;;;;;1.10;99.90;;;;;;5059076;28;19913;-80
2022/12/07 06:14:25;;;;;;;;;;;1.10;99.90;;;;;;5078727;28;20376;-81
2022/12/07 06:16:51;;;;;;;;;;;1.20;99.90;;;;;;5070866;28;19912;-80
2022/12/07 06:19:17;;;;;;;;;;;1.20;99.90;;;;;;5098894;28;19991;-81
2022/12/07 06:21:42;;;;;;;;;;;1.30;99.90;;;;;;5068911;28;19919;-79
2022/12/07 06:24:10;;;;;;;;;;;1.30;99.90;;;;;;5103816;28;20321;-79
2022/12/07 06:26:36;;;;;;;;;;;1.30;99.90;;;;;;5086357;28;19915;-79
2022/12/07 06:29:01;;;;;;;;;;;1.30;99.90;;;;;;5070519;28;19913;-79
2022/12/07 06:31:27;;;;;;;;;;;1.30;99.90;;;;;;5086446;28;20444;-79
2022/12/07 06:33:56;;;;;;;;;;;1.40;99.90;;;;;;5102915;28;19912;-81
2022/12/07 06:36:22;;;;;;;;;;;1.40;99.90;;;;;;5101735;28;19915;-81
2022/12/07 06:38:48;;;;;;;;;;;1.50;99.90;;;;;;5083214;28;19916;-81
2022/12/07 06:41:13;;;;;;;;;;;1.50;99.90;;;;;;5101574;28;20392;-81
2022/12/07 06:43:39;;;;;;;;;;;1.50;99.90;;;;;;5098957;28;20414;-82
2022/12/07 06:46:04;;;;;;;;;;;1.60;99.90;;;;;;5101290;28;19915;-81
2022/12/07 06:48:30;;;;;;;;;;;1.60;99.90;;;;;;5099811;28;19920;-81
2022/12/07 06:50:55;;;;;;;;;;;1.70;99.90;;;;;;5100759;28;20265;-81
2022/12/07 06:53:21;;;;;;;;;;;1.70;99.90;;;;;;5098950;28;20359;-81
2022/12/07 06:55:47;;;;;;;;;;;1.80;99.90;;;;;;5100628;28;19919;-80
2022/12/07 06:58:12;;;;;;;;;;;1.80;99.90;;;;;;5099791;28;19916;-81
2022/12/07 07:00:38;;;;;;;;;;;1.80;99.90;;;;;;5082064;28;19912;-81
2022/12/07 07:03:03;;;;;;;;;;;1.90;99.90;;;;;;5100608;28;19963;-81
2022/12/07 07:05:29;;;;;;;;;;;1.90;99.90;;;;;;5103825;28;19923;-80
2022/12/07 07:07:54;;;;;;;;;;;1.90;99.90;;;;;;5104055;28;19998;-81
2022/12/07 07:10:20;;;;;;;;;;;1.90;99.90;;;;;;5085529;28;20330;-81
2022/12/07 07:12:45;;;;;;;;;;;2.00;99.90;;;;;;5104056;28;20372;-81
2022/12/07 07:15:11;;;;;;;;;;;2.00;99.90;;;;;;5104251;28;20363;-80
2022/12/07 07:17:37;;;;;;;;;;;2.00;99.90;;;;;;5103552;28;20310;-81
2022/12/07 07:20:03;;;;;;;;;;;2.00;99.90;;;;;;5103670;28;19918;-81
2022/12/07 07:22:29;;;;;;;;;;;2.10;99.90;;;;;;5103339;28;19912;-80
2022/12/07 07:24:54;;;;;;;;;;;2.00;99.90;;;;;;5067510;28;20003;-81
2022/12/07 07:27:20;;;;;;;;;;;2.00;99.90;;;;;;5103166;28;19912;-81
2022/12/07 07:29:45;;;;;;;;;;;1.90;99.90;;;;;;5102918;28;19912;-81
2022/12/07 07:32:12;;;;;;;;;;;1.90;99.90;;;;;;5103105;28;19913;-81
2022/12/07 07:34:37;;;;;;;;;;;2.00;99.90;;;;;;5084512;28;19958;-83
2022/12/07 07:37:03;;;;;;;;;;;1.90;99.90;;;;;;5103209;28;19916;-81
2022/12/07 07:39:28;;;;;;;;;;;1.90;99.90;;;;;;5102491;28;19920;-80
2022/12/07 07:41:54;;;;;;;;;;;1.90;99.90;;;;;;5085020;28;19998;-80
2022/12/07 07:44:19;;;;;;;;;;;1.90;99.90;;;;;;5082290;28;19912;-80
2022/12/07 07:46:45;;;;;;;;;;;1.90;99.90;;;;;;5101392;28;19912;-80
2022/12/07 07:49:11;;;;;;;;;;;1.80;99.90;;;;;;5100471;28;19934;-80
2022/12/07 07:51:36;;;;;;;;;;;1.80;99.90;;;;;;5102433;28;20407;-80
2022/12/07 07:54:02;;;;;;;;;;;1.80;99.90;;;;;;5103230;28;19954;-81
2022/12/07 07:56:28;;;;;;;;;;;1.80;99.90;;;;;;5083782;28;20302;-81
2022/12/07 07:58:53;;;;;;;;;;;1.80;99.90;;;;;;5101790;28;19912;-81
2022/12/07 08:01:19;;;;;;;;;;;1.80;99.90;;;;;;5102611;28;20341;-81
2022/12/07 08:03:46;;;;;;;;;;;1.80;99.90;;;;;;5101713;28;19916;-81
2022/12/07 08:06:11;;;;;;;;;;;1.90;99.90;;;;;;5102334;28;20019;-81
2022/12/07 08:08:37;;;;;;;;;;;1.80;99.90;;;;;;5083251;28;19955;-81
2022/12/07 08:11:07;;;;;;;;;;;1.80;99.90;;;;;;5082579;28;19908;-81
2022/12/07 08:13:32;;;;;;;;;;;1.80;99.90;;;;;;5083352;28;19995;-81
2022/12/07 08:15:58;;;;;;;;;;;1.80;99.90;;;;;;5101646;28;19951;-81
2022/12/07 08:18:24;;;;;;;;;;;1.80;99.90;;;;;;5081721;28;20432;-82
2022/12/07 08:20:49;;;;;;;;;;;1.70;99.90;;;;;;5081198;28;20003;-82
2022/12/07 08:23:15;;;;;;;;;;;1.70;99.90;;;;;;5099365;28;19908;-82
2022/12/07 08:25:40;;;;;;;;;;;1.70;99.90;;;;;;5080863;28;19918;-82
2022/12/07 08:28:06;;;;;;;;;;;1.70;99.90;;;;;;5080910;28;19957;-82
2022/12/07 08:30:32;;;;;;;;;;;1.70;99.90;;;;;;5098927;28;20329;-82
2022/12/07 08:32:57;;;;;;;;;;;1.70;99.90;;;;;;5099312;28;19912;-82
2022/12/07 08:35:23;;;;;;;;;;;1.70;99.90;;;;;;5064536;28;19912;-81
2022/12/07 08:37:49;;;;;;;;;;;1.70;99.90;;;;;;5098942;28;19912;-82
2022/12/07 08:40:15;;;;;;;;;;;1.70;99.90;;;;;;5061063;28;19916;-82
2022/12/07 08:42:48;;;;;;;;;;;1.70;99.90;;;;;;5080011;28;20252;-82
2022/12/07 08:45:14;;;;;;;;;;;1.80;99.90;;;;;;5095836;28;19908;-82
2022/12/07 08:47:41;;;;;;;;;;;1.70;99.90;;;;;;5079614;28;19912;-82
2022/12/07 08:50:08;;;;;;;;;;;1.80;99.90;;;;;;5098600;28;19956;-83
2022/12/07 08:52:34;;;;;;;;;;;1.70;99.90;;;;;;5080107;28;19908;-82
2022/12/07 08:55:01;;;;;;;;;;;1.70;99.90;;;;;;5063154;28;19912;-82
2022/12/07 08:57:27;;;;;;;;;;;1.70;99.90;;;;;;5079924;28;20284;-83
2022/12/07 08:59:53;;;;;;;;;;;1.70;99.90;;;;;;5098320;28;19912;-83
2022/12/07 09:02:19;;;;;;;;;;;1.70;99.90;;;;;;5079934;28;19920;-83
2022/12/07 09:04:44;;;;;;;;;;;1.70;99.90;;;;;;5079594;28;20015;-82
2022/12/07 09:07:10;;;;;;;;;;;1.70;99.90;;;;;;5098565;28;19912;-83
2022/12/07 09:09:36;;;;;;;;;;;1.80;99.90;;;;;;5098131;28;20370;-82
2022/12/07 09:12:01;;;;;;;;;;;1.80;99.90;;;;;;5079658;28;19908;-83
2022/12/07 09:14:27;;;;;;;;;;;1.80;99.90;;;;;;5097834;28;19912;-83
2022/12/07 09:16:52;;;;;;;;;;;1.80;99.90;;;;;;5079640;28;19908;-82
2022/12/07 09:19:18;;;;;;;;;;;1.80;99.90;;;;;;5080002;28;20041;-83
2022/12/07 09:21:44;;;;;;;;;;;1.80;99.90;;;;;;5062684;28;19979;-83
2022/12/07 09:24:11;;;;;;;;;;;1.80;99.90;;;;;;5079861;28;20323;-83
2022/12/07 09:26:37;;;;;;;;;;;1.80;99.90;;;;;;5097150;28;19909;-83
2022/12/07 09:29:03;;;;;;;;;;;1.80;99.90;;;;;;5080044;28;20425;-83
2022/12/07 09:31:29;;;;;;;;;;;1.80;99.90;;;;;;5079759;28;19916;-83
2022/12/07 09:33:58;;;;;;;;;;;1.80;99.90;;;;;;5079748;28;19919;-82
2022/12/07 09:36:29;;;;;;;;;;;1.80;99.90;;;;;;5063027;28;19912;-83
2022/12/07 09:38:54;;;;;;;;;;;1.80;99.90;;;;;;5097401;28;20284;-83
2022/12/07 09:41:21;;;;;;;;;;;1.80;99.90;;;;;;5079702;28;19915;-83
2022/12/07 09:43:47;;;;;;;;;;;1.80;99.90;;;;;;5078964;28;19912;-83
2022/12/07 09:46:14;;;;;;;;;;;1.90;99.90;;;;;;5078788;28;20030;-83
2022/12/07 09:48:42;;;;;;;;;;;1.80;99.90;;;;;;5097088;28;19915;-83
2022/12/07 09:51:20;;;;;;;;;;;1.80;99.90;;;;;;5097078;28;19908;-83
2022/12/07 09:53:47;;;;;;;;;;;1.80;99.90;;;;;;5078604;28;19908;-83
2022/12/07 09:56:16;;;;;;;;;;;1.80;99.90;;;;;;5096775;28;20340;-83
2022/12/07 09:58:42;;;;;;;;;;;1.90;99.90;;;;;;5078210;28;19912;-83
2022/12/07 10:01:08;;;;;;;;;;;1.80;99.90;;;;;;5078247;28;19912;-83
2022/12/07 10:03:44;;;;;;;;;;;1.90;99.90;;;;;;5096863;28;20457;-83
2022/12/07 10:06:12;;;;;;;;;;;1.80;99.90;;;;;;5078087;28;19990;-83
2022/12/07 10:08:38;;;;;;;;;;;1.80;99.90;;;;;;5096902;28;20426;-83
2022/12/07 10:11:03;;;;;;;;;;;1.80;99.90;;;;;;5096451;28;19962;-83
2022/12/07 10:13:35;;;;;;;;;;;1.90;99.90;;;;;;5061798;28;20011;-83
2022/12/07 10:16:01;;;;;;;;;;;1.80;99.90;;;;;;5078253;28;19946;-84
2022/12/07 10:18:28;;;;;;;;;;;1.80;99.90;;;;;;5078022;28;19919;-83
2022/12/07 10:21:02;;;;;;;;;;;1.80;99.90;;;;;;5096388;28;19908;-83
2022/12/07 10:23:27;;;;;;;;;;;1.80;99.90;;;;;;5077829;28;19957;-83
2022/12/07 10:25:54;;;;;;;;;;;1.80;99.90;;;;;;5096276;28;19912;-84
2022/12/07 10:28:20;;;;;;;;;;;1.90;99.90;;;;;;5078417;28;19915;-83
2022/12/07 10:30:47;;;;;;;;;;;1.90;99.90;;;;;;5096499;28;19912;-83
2022/12/07 10:33:31;;;;;;;;;;;1.90;99.90;;;;;;5077829;28;20279;-84
2022/12/07 10:35:57;;;;;;;;;;;1.90;99.90;;;;;;5076176;28;19908;-84
2022/12/07 10:38:25;;;;;;;;;;;1.90;99.90;;;;;;5075170;28;20283;-83
2022/12/07 10:41:02;;;;;;;;;;;1.90;99.90;;;;;;5083265;28;19958;-83
2022/12/07 10:43:28;;;;;;;;;;;1.90;99.90;;;;;;5097769;28;19916;-84
2022/12/07 10:45:56;;;;;;;;;;;2.00;99.90;;;;;;5093888;28;20325;-84
2022/12/07 10:48:22;;;;;;;;;;;2.00;99.90;;;;;;5097431;28;19916;-84
2022/12/07 10:51:00;;;;;;;;;;;2.00;99.90;;;;;;5096406;28;19908;-85
2022/12/07 10:53:31;;;;;;;;;;;2.10;99.90;;;;;;5078442;28;20364;-84
2022/12/07 10:56:12;;;;;;;;;;;2.10;99.90;;;;;;5078310;28;19995;-83
2022/12/07 10:58:50;;;;;;;;;;;2.10;99.90;;;;;;5078262;28;20325;-83
2022/12/07 11:01:27;;;;;;;;;;;2.20;99.90;;;;;;5092339;28;19908;-84
2022/12/07 11:04:11;;;;;;;;;;;2.20;99.90;;;;;;5095951;28;19924;-84
2022/12/07 11:06:43;;;;;;;;;;;2.30;99.90;;;;;;5092864;28;20011;-84
2022/12/07 11:09:27;;;;;;;;;;;2.40;99.90;;;;;;5097091;28;19934;-84
2022/12/07 11:12:05;;;;;;;;;;;2.50;99.90;;;;;;5079229;28;19998;-84
2022/12/07 11:14:44;;;;;;;;;;;2.60;99.90;;;;;;5077600;28;19912;-84
2022/12/07 11:17:09;;;;;;;;;;;2.70;99.90;;;;;;5096262;28;19916;-84
2022/12/07 11:19:51;;;;;;;;;;;2.80;99.90;;;;;;5079274;28;19912;-83
2022/12/07 11:22:19;;;;;;;;;;;2.80;99.90;;;;;;5096152;28;19930;-83
2022/12/07 11:24:59;;;;;;;;;;;2.90;99.90;;;;;;5097168;28;20006;-83
2022/12/07 11:27:37;;;;;;;;;;;2.90;99.90;;;;;;5096291;28;19958;-84
2022/12/07 11:30:23;;;;;;;;;;;3.00;99.90;;;;;;5078716;28;20387;-83
2022/12/07 11:32:57;;;;;;;;;;;3.00;99.90;;;;;;5096984;28;19908;-83
2022/12/07 11:35:38;;;;;;;;;;;3.00;99.90;;;;;;5096353;28;20006;-83
2022/12/07 11:38:15;;;;;;;;;;;3.10;99.90;;;;;;5077960;28;19961;-83
2022/12/07 11:40:43;;;;;;;;;;;3.10;99.90;;;;;;5096650;28;20295;-83
2022/12/07 11:43:27;;;;;;;;;;;3.10;99.90;;;;;;5078798;28;19912;-84
2022/12/07 11:46:02;;;;;;;;;;;3.10;99.90;;;;;;5097014;28;20027;-84
2022/12/07 11:48:31;;;;;;;;;;;3.20;99.90;;;;;;5078362;28;19908;-84
2022/12/07 11:50:58;;;;;;;;;;;3.20;99.90;;;;;;5099892;28;20002;-84
2022/12/07 11:53:26;;;;;;;;;;;3.10;99.90;;;;;;5100833;28;20006;-84
2022/12/07 11:56:12;;;;;;;;;;;3.10;99.90;;;;;;5099975;28;19966;-83
2022/12/07 11:58:50;;;;;;;;;;;3.10;99.90;;;;;;5099574;28;20356;-84
2022/12/07 12:01:31;;;;;;;;;;;3.20;99.90;;;;;;5099586;28;19942;-83
2022/12/07 12:03:56;;;;;;;;;;;3.20;99.90;;;;;;5079369;28;19908;-83
2022/12/07 12:06:22;;;;;;;;;;;3.10;99.90;;;;;;5096641;28;19969;-81
2022/12/07 12:08:57;;;;;;;;;;;3.10;99.90;;;;;;5058501;28;20007;-83
2022/12/07 12:11:32;;;;;;;;;;;3.10;99.90;;;;;;5058214;28;19908;-83
2022/12/07 12:14:24;;;;;;;;;;;3.10;99.90;;;;;;5076745;28;20379;-83
2022/12/07 12:17:03;;;;;;;;;;;3.10;99.90;;;;;;5086769;28;19908;-83
2022/12/07 12:19:37;;;;;;;;;;;3.00;99.90;;;;;;5078318;28;19954;-82
2022/12/07 12:22:12;;;;;;;;;;;3.00;99.90;;;;;;5096248;28;19908;-82
2022/12/07 12:24:39;;;;;;;;;;;3.00;99.90;;;;;;5096766;28;19908;-82
2022/12/07 12:27:10;;;;;;;;;;;3.00;99.90;;;;;;5077890;28;20322;-82
2022/12/07 12:29:37;;;;;;;;;;;3.00;99.90;;;;;;5078542;28;19958;-82
2022/12/07 12:32:08;;;;;;;;;;;3.00;99.90;;;;;;5096609;28;19955;-82
2022/12/07 12:34:52;;;;;;;;;;;3.10;99.90;;;;;;5096609;28;19909;-83
2022/12/07 12:37:33;;;;;;;;;;;3.00;99.90;;;;;;5098617;28;19915;-83
2022/12/07 12:40:14;;;;;;;;;;;3.00;99.90;;;;;;5080796;28;19912;-83
2022/12/07 12:42:47;;;;;;;;;;;2.90;99.90;;;;;;5098593;28;20264;-83
2022/12/07 12:45:20;;;;;;;;;;;2.90;99.90;;;;;;5077932;28;19916;-82
2022/12/07 12:47:54;;;;;;;;;;;2.90;99.90;;;;;;5077984;28;19916;-82
2022/12/07 12:50:25;;;;;;;;;;;3.00;99.90;;;;;;5095988;28;20329;-82
2022/12/07 12:53:05;;;;;;;;;;;3.00;99.90;;;;;;5096048;28;19908;-83
2022/12/07 12:55:42;;;;;;;;;;;3.10;99.90;;;;;;5095702;28;20257;-83
2022/12/07 12:58:17;;;;;;;;;;;3.20;99.90;;;;;;5095751;28;19908;-82
2022/12/07 13:00:43;;;;;;;;;;;3.20;99.90;;;;;;5077181;28;19909;-83
2022/12/07 13:03:21;;;;;;;;;;;3.20;99.90;;;;;;5077170;28;19958;-82
2022/12/07 13:05:47;;;;;;;;;;;3.20;99.90;;;;;;5080024;28;20376;-83
2022/12/07 13:08:22;;;;;;;;;;;3.20;99.90;;;;;;5096015;28;19920;-83
2022/12/07 13:10:48;;;;;;;;;;;3.30;99.90;;;;;;5095532;28;19908;-83
2022/12/07 13:13:18;;;;;;;;;;;3.30;99.90;;;;;;5095776;28;19919;-82
2022/12/07 13:15:54;;;;;;;;;;;3.40;99.90;;;;;;5096022;28;19915;-83
2022/12/07 13:18:23;;;;;;;;;;;3.40;99.90;;;;;;5095375;28;19912;-83
2022/12/07 13:21:01;;;;;;;;;;;3.40;99.90;;;;;;5095865;28;20364;-83
2022/12/07 13:23:35;;;;;;;;;;;3.40;99.90;;;;;;5097649;28;20380;-83
2022/12/07 13:26:01;;;;;;;;;;;3.40;99.90;;;;;;5096957;28;19916;-83
2022/12/07 13:28:32;;;;;;;;;;;3.30;99.90;;;;;;5096608;28;20324;-82
2022/12/07 13:30:57;;;;;;;;;;;3.30;99.90;;;;;;5077593;28;20390;-82
2022/12/07 13:33:27;;;;;;;;;;;3.30;99.90;;;;;;5095720;28;19908;-83
2022/12/07 13:35:56;;;;;;;;;;;3.30;99.90;;;;;;5095914;28;19908;-82
2022/12/07 13:38:27;;;;;;;;;;;3.30;99.90;;;;;;5077213;28;19912;-83
2022/12/07 13:41:03;;;;;;;;;;;3.30;99.90;;;;;;5095081;28;19982;-83
2022/12/07 13:43:29;;;;;;;;;;;3.30;99.90;;;;;;5095626;28;19908;-83
2022/12/07 13:45:58;;;;;;;;;;;3.40;99.90;;;;;;5077249;28;19923;-83
2022/12/07 13:48:34;;;;;;;;;;;3.30;99.90;;;;;;5077331;28;19930;-82
2022/12/07 13:51:01;;;;;;;;;;;3.30;99.90;;;;;;5094658;28;20007;-82
2022/12/07 13:53:30;;;;;;;;;;;3.30;99.90;;;;;;5094754;28;19909;-83
2022/12/07 13:55:59;;;;;;;;;;;3.30;99.90;;;;;;5094584;28;19955;-82
2022/12/07 13:58:25;;;;;;;;;;;3.30;99.90;;;;;;5076343;28;19990;-82
2022/12/07 14:00:51;;;;;;;;;;;3.30;99.90;;;;;;5094715;28;19912;-82
2022/12/07 14:03:16;;;;;;;;;;;3.30;99.90;;;;;;5076548;28;19915;-83
2022/12/07 14:05:43;;;;;;;;;;;3.30;99.90;;;;;;5076307;28;19916;-83
2022/12/07 14:08:12;;;;;;;;;;;3.30;99.90;;;;;;5076686;28;19912;-82
2022/12/07 14:10:38;;;;;;;;;;;3.30;99.90;;;;;;5094519;28;19909;-82
2022/12/07 14:13:19;;;;;;;;;;;3.30;99.90;;;;;;5094315;28;19908;-82
2022/12/07 14:15:49;;;;;;;;;;;3.30;99.90;;;;;;5076575;28;19930;-83
2022/12/07 14:18:26;;;;;;;;;;;3.30;99.90;;;;;;5096109;28;20324;-81
2022/12/07 14:21:02;;;;;;;;;;;3.30;99.90;;;;;;5095844;28;19908;-81
2022/12/07 14:23:28;;;;;;;;;;;3.30;99.90;;;;;;5095814;28;19954;-81
2022/12/07 14:25:53;;;;;;;;;;;3.30;99.90;;;;;;5094926;28;19912;-81
2022/12/07 14:28:26;;;;;;;;;;;3.30;99.90;;;;;;5076748;28;19917;-81
2022/12/07 14:30:52;;;;;;;;;;;3.30;99.90;;;;;;5077230;28;19912;-81
2022/12/07 14:33:18;;;;;;;;;;;3.30;99.90;;;;;;5096348;28;20105;-80
2022/12/07 14:35:43;;;;;;;;;;;3.30;99.90;;;;;;5098006;28;19908;-80
2022/12/07 14:38:09;;;;;;;;;;;3.30;99.90;;;;;;5096510;28;21501;-80
2022/12/07 14:40:34;;;;;;;;;;;3.20;99.90;;;;;;5077118;28;20253;-80
2022/12/07 14:43:01;;;;;;;;;;;3.20;99.90;;;;;;5094993;28;19912;-80